createdAt,value
2022-11-08T00:01:34.439Z,12.93
2022-11-08T00:04:10.134Z,13.98
2022-11-08T00:06:37.686Z,13.77
2022-11-08T00:09:04.501Z,13.07
2022-11-08T00:11:31.336Z,13.75
2022-11-08T00:13:58.128Z,13.50
2022-11-08T00:16:25.289Z,13.65
2022-11-08T00:18:52.073Z,13.18
2022-11-08T00:21:18.830Z,13.77
2022-11-08T00:23:45.622Z,13.88
2022-11-08T00:26:12.510Z,12.40
2022-11-08T00:28:39.643Z,14.30
2022-11-08T00:31:06.580Z,12.73
2022-11-08T00:33:33.572Z,13.52
2022-11-08T00:36:01.018Z,13.98
2022-11-08T00:38:28.439Z,13.87
2022-11-08T00:40:56.073Z,15.10
2022-11-08T00:43:23.558Z,13.55
2022-11-08T00:45:50.543Z,13.90
2022-11-08T00:48:18.080Z,14.30
2022-11-08T00:50:45.189Z,13.67
2022-11-08T00:53:11.961Z,14.77
2022-11-08T00:55:38.745Z,14.35
2022-11-08T00:58:05.605Z,13.50
2022-11-08T01:00:32.369Z,14.65
2022-11-08T01:02:59.513Z,13.10
2022-11-08T01:05:26.299Z,14.07
2022-11-08T01:07:53.524Z,14.50
2022-11-08T01:10:20.481Z,13.70
2022-11-08T01:12:47.348Z,13.82
2022-11-08T01:15:14.520Z,13.57
2022-11-08T01:17:42.421Z,14.13
2022-11-08T01:20:09.487Z,14.15
2022-11-08T01:22:36.389Z,14.15
2022-11-08T01:25:03.522Z,14.32
2022-11-08T01:27:30.400Z,13.37
2022-11-08T01:29:57.241Z,13.30
2022-11-08T01:32:24.264Z,14.00
2022-11-08T01:34:51.177Z,13.38
2022-11-08T01:37:17.955Z,13.38
2022-11-08T01:39:44.716Z,13.70
2022-11-08T01:42:11.522Z,14.38
2022-11-08T01:45:01.302Z,12.30
2022-11-08T01:47:29.695Z,13.55
2022-11-08T01:50:03.423Z,13.98
2022-11-08T01:52:36.720Z,13.93
2022-11-08T01:55:13.333Z,14.15
2022-11-08T01:57:54.894Z,14.07
2022-11-08T02:00:21.955Z,11.93
2022-11-08T02:03:12.499Z,13.40
2022-11-08T02:05:40.214Z,12.97
2022-11-08T02:08:28.665Z,13.48
2022-11-08T02:10:55.483Z,12.57
2022-11-08T02:13:25.160Z,13.30
2022-11-08T02:15:52.343Z,12.30
2022-11-08T02:18:21.761Z,13.07
2022-11-08T02:21:03.843Z,14.27
2022-11-08T02:23:57.114Z,12.25
2022-11-08T02:26:28.461Z,12.95
2022-11-08T02:28:55.815Z,12.68
2022-11-08T02:31:22.779Z,12.17
2022-11-08T02:33:49.910Z,11.70
2022-11-08T02:36:24.481Z,12.05
2022-11-08T02:38:54.504Z,12.88
2022-11-08T02:41:21.410Z,12.52
2022-11-08T02:43:48.332Z,13.70
2022-11-08T02:46:15.401Z,13.13
2022-11-08T02:48:42.136Z,12.93
2022-11-08T02:51:08.820Z,12.90
2022-11-08T02:53:56.316Z,13.40
2022-11-08T02:56:23.046Z,12.63
2022-11-08T02:58:49.779Z,13.77
2022-11-08T03:01:16.666Z,13.00
2022-11-08T03:03:43.468Z,13.10
2022-11-08T03:06:10.297Z,11.73
2022-11-08T03:08:37.043Z,12.10
2022-11-08T03:11:03.829Z,13.00
2022-11-08T03:13:30.599Z,13.63
2022-11-08T03:15:57.381Z,12.88
2022-11-08T03:18:24.243Z,13.13
2022-11-08T03:20:51.022Z,12.57
2022-11-08T03:23:17.773Z,12.60
2022-11-08T03:25:46.823Z,12.10
2022-11-08T03:28:17.148Z,11.93
2022-11-08T03:30:46.526Z,12.25
2022-11-08T03:33:13.269Z,11.37
2022-11-08T03:35:39.994Z,12.27
2022-11-08T03:38:06.769Z,12.23
2022-11-08T03:40:34.008Z,12.07
2022-11-08T03:43:00.740Z,11.60
2022-11-08T03:45:27.506Z,12.17
2022-11-08T03:47:54.246Z,11.50
2022-11-08T03:50:21.033Z,12.65
2022-11-08T03:52:50.654Z,11.45
2022-11-08T03:55:19.986Z,11.90
2022-11-08T03:57:48.974Z,10.83
2022-11-08T04:00:21.270Z,10.50
2022-11-08T04:02:49.665Z,11.20
2022-11-08T04:05:17.280Z,11.50
2022-11-08T04:07:44.366Z,11.75
2022-11-08T04:10:12.360Z,11.73
2022-11-08T04:12:41.386Z,11.68
2022-11-08T04:15:13.701Z,12.07
2022-11-08T04:17:41.162Z,11.85
2022-11-08T04:20:09.627Z,11.43
2022-11-08T04:22:36.475Z,11.43
2022-11-08T04:25:03.195Z,10.13
2022-11-08T04:27:29.865Z,10.63
2022-11-08T04:29:57.759Z,10.18
2022-11-08T04:32:24.523Z,10.88
2022-11-08T04:34:51.283Z,11.00
2022-11-08T04:37:18.497Z,11.27
2022-11-08T04:39:45.276Z,11.38
2022-11-08T04:42:12.140Z,10.48
2022-11-08T04:44:38.962Z,10.77
2022-11-08T04:47:05.729Z,10.43
2022-11-08T04:49:33.681Z,10.32
2022-11-08T04:52:00.489Z,11.50
2022-11-08T04:54:27.169Z,10.35
2022-11-08T04:56:53.911Z,10.43
2022-11-08T04:59:20.984Z,10.10
2022-11-08T05:01:47.897Z,10.95
2022-11-08T05:04:14.757Z,9.00
2022-11-08T05:06:41.545Z,10.05
2022-11-08T05:09:08.340Z,9.75
2022-11-08T05:11:35.076Z,9.90
2022-11-08T05:14:01.927Z,10.25
2022-11-08T05:16:31.436Z,10.90
2022-11-08T05:18:58.580Z,10.35
2022-11-08T05:21:26.853Z,9.45
2022-11-08T05:23:53.710Z,10.20
2022-11-08T05:26:20.662Z,9.68
2022-11-08T05:28:47.814Z,9.38
2022-11-08T05:31:15.634Z,9.13
2022-11-08T05:33:42.775Z,8.82
2022-11-08T05:36:12.831Z,8.83
2022-11-08T05:38:40.692Z,8.38
2022-11-08T05:41:11.340Z,11.00
2022-11-08T05:43:38.786Z,12.30
2022-11-08T05:46:06.027Z,13.20
2022-11-08T05:48:33.179Z,12.07
2022-11-08T05:51:00.346Z,11.90
2022-11-08T05:53:28.023Z,11.43
2022-11-08T05:55:59.563Z,10.65
2022-11-08T05:58:33.754Z,11.40
2022-11-08T06:01:05.751Z,11.30
2022-11-08T06:03:32.935Z,9.05
2022-11-08T06:06:04.547Z,10.05
2022-11-08T06:08:31.676Z,10.13
2022-11-08T06:11:06.603Z,9.98
2022-11-08T06:13:34.806Z,8.57
2022-11-08T06:16:03.126Z,8.27
2022-11-08T06:18:31.368Z,9.43
2022-11-08T06:20:59.151Z,10.10
2022-11-08T06:23:26.208Z,7.53
2022-11-08T06:25:53.381Z,6.87
2022-11-08T06:28:20.240Z,6.60
2022-11-08T06:30:47.848Z,7.20
2022-11-08T06:33:15.054Z,6.90
2022-11-08T06:35:42.034Z,6.57
2022-11-08T06:38:09.610Z,6.80
2022-11-08T06:40:38.086Z,16.20
2022-11-08T06:43:05.036Z,18.50
2022-11-08T06:45:32.291Z,17.25
2022-11-08T06:48:01.080Z,18.05
2022-11-08T06:50:29.319Z,15.73
2022-11-08T06:53:00.475Z,14.63
2022-11-08T06:55:27.570Z,9.82
2022-11-08T06:57:55.325Z,8.10
2022-11-08T07:00:22.884Z,10.32
2022-11-08T07:02:54.203Z,6.60
2022-11-08T07:05:21.987Z,10.95
2022-11-08T07:07:49.002Z,10.15
2022-11-08T07:10:15.961Z,15.15
2022-11-08T07:12:42.766Z,13.85
2022-11-08T07:15:09.963Z,11.87
2022-11-08T07:17:38.792Z,12.50
2022-11-08T07:20:06.842Z,13.82
2022-11-08T07:22:33.664Z,12.85
2022-11-08T07:25:00.527Z,9.23
2022-11-08T07:27:28.126Z,13.70
2022-11-08T07:29:54.903Z,13.23
2022-11-08T07:32:21.686Z,13.68
2022-11-08T07:34:48.515Z,12.88
2022-11-08T07:37:15.230Z,12.63
2022-11-08T07:39:41.981Z,13.80
2022-11-08T07:42:10.055Z,12.23
2022-11-08T07:44:36.797Z,11.90
2022-11-08T07:47:03.583Z,11.50
2022-11-08T07:49:31.264Z,10.23
2022-11-08T07:51:57.990Z,10.87
2022-11-08T07:54:24.849Z,9.20
2022-11-08T07:56:51.632Z,8.02
2022-11-08T07:59:18.534Z,7.75
2022-11-08T08:01:48.504Z,6.35
2022-11-08T08:04:17.573Z,8.17
2022-11-08T08:06:46.815Z,9.32
2022-11-08T08:09:13.618Z,9.52
2022-11-08T08:11:40.570Z,7.90
2022-11-08T08:14:07.294Z,7.38
2022-11-08T08:16:39.938Z,7.83
2022-11-08T08:19:06.769Z,6.50
2022-11-08T08:21:36.656Z,6.97
2022-11-08T08:24:06.600Z,7.20
2022-11-08T08:26:33.397Z,8.32
2022-11-08T08:29:00.215Z,8.20
2022-11-08T08:31:27.182Z,8.48
2022-11-08T08:33:54.011Z,7.90
2022-11-08T08:36:20.829Z,7.57
2022-11-08T08:38:47.719Z,7.47
2022-11-08T08:41:14.565Z,8.70
2022-11-08T08:43:41.425Z,8.98
2022-11-08T08:46:08.249Z,9.20
2022-11-08T08:48:35.055Z,7.32
2022-11-08T08:51:01.960Z,7.40
2022-11-08T08:53:28.798Z,7.53
2022-11-08T08:55:55.591Z,7.70
2022-11-08T08:58:22.925Z,7.60
2022-11-08T09:03:38.666Z,8.10
2022-11-08T09:06:05.682Z,7.73
2022-11-08T09:08:32.472Z,8.10
2022-11-08T09:11:01.162Z,8.73
2022-11-08T09:13:28.995Z,9.55
2022-11-08T09:15:55.880Z,8.05
2022-11-08T09:18:23.163Z,7.30
2022-11-08T09:20:50.071Z,7.60
2022-11-08T09:23:17.328Z,6.68
2022-11-08T09:25:44.250Z,7.30
2022-11-08T09:28:11.080Z,9.35
2022-11-08T09:30:37.867Z,7.30
2022-11-08T09:33:04.711Z,7.68
2022-11-08T09:35:31.744Z,7.97
2022-11-08T09:37:58.794Z,6.80
2022-11-08T09:40:31.146Z,6.45
2022-11-08T09:43:32.905Z,6.90
2022-11-08T09:46:00.106Z,7.03
2022-11-08T09:48:36.735Z,6.88
2022-11-08T09:51:15.570Z,7.13
2022-11-08T09:53:48.513Z,6.90
2022-11-08T09:56:38.940Z,6.80
2022-11-08T09:59:20.079Z,7.30
2022-11-08T10:01:49.160Z,7.40
2022-11-08T10:04:21.823Z,7.43
2022-11-08T10:07:15.194Z,7.60
2022-11-08T10:10:08.911Z,7.40
2022-11-08T10:12:58.833Z,6.88
2022-11-08T10:15:34.366Z,6.38
2022-11-08T10:18:24.442Z,6.03
2022-11-08T10:21:03.885Z,6.13
2022-11-08T10:23:44.275Z,6.30
2022-11-08T10:26:24.139Z,5.90
2022-11-08T10:29:09.363Z,7.30
2022-11-08T10:31:39.921Z,6.88
2022-11-08T10:34:17.605Z,7.00
2022-11-08T10:36:48.310Z,7.90
2022-11-08T10:39:24.571Z,8.40
2022-11-08T10:42:25.934Z,7.10
2022-11-08T10:44:52.993Z,6.32
2022-11-08T10:47:29.657Z,6.47
2022-11-08T10:50:02.437Z,4.83
2022-11-08T10:52:55.347Z,5.13
2022-11-08T10:55:33.346Z,6.15
2022-11-08T10:58:00.819Z,5.32
2022-11-08T11:00:31.909Z,4.57
2022-11-08T11:03:22.825Z,4.50
2022-11-08T11:06:07.462Z,4.93
2022-11-08T11:08:34.633Z,5.20
2022-11-08T11:11:23.263Z,5.35
2022-11-08T11:14:07.283Z,4.90
2022-11-08T11:16:36.418Z,5.27
2022-11-08T11:19:06.637Z,4.65
2022-11-08T11:21:57.846Z,4.38
2022-11-08T11:24:25.313Z,4.72
2022-11-08T11:27:06.294Z,4.85
2022-11-08T11:29:38.711Z,4.60
2022-11-08T11:32:35.422Z,5.00
2022-11-08T11:35:05.541Z,4.90
2022-11-08T11:37:41.388Z,5.40
2022-11-08T11:40:27.326Z,4.70
2022-11-08T11:43:18.848Z,4.97
2022-11-08T11:46:17.259Z,4.57
2022-11-08T11:48:53.430Z,4.90
2022-11-08T11:51:20.500Z,4.90
2022-11-08T11:53:48.981Z,4.97
2022-11-08T11:56:48.299Z,4.80
2022-11-08T11:59:24.213Z,4.55
2022-11-08T12:02:12.855Z,4.72
2022-11-08T12:05:09.511Z,4.63
2022-11-08T12:07:50.192Z,4.45
2022-11-08T12:10:26.259Z,5.33
2022-11-08T12:12:53.278Z,4.78
2022-11-08T12:15:52.257Z,4.75
2022-11-08T12:18:41.989Z,5.22
2022-11-08T12:21:13.741Z,4.20
2022-11-08T12:23:50.192Z,4.30
2022-11-08T12:26:37.665Z,4.03
2022-11-08T12:29:25.531Z,4.55
2022-11-08T12:32:10.631Z,5.85
2022-11-08T12:35:06.234Z,4.80
2022-11-08T12:37:36.017Z,5.73
2022-11-08T12:40:33.630Z,6.55
2022-11-08T12:43:29.343Z,5.88
2022-11-08T12:46:02.835Z,5.43
2022-11-08T12:48:34.726Z,4.70
2022-11-08T12:51:30.139Z,5.20
2022-11-08T12:54:35.773Z,7.30
2022-11-08T12:57:13.420Z,6.15
2022-11-08T12:59:47.285Z,6.05
2022-11-08T13:02:26.769Z,6.60
2022-11-08T13:05:08.870Z,7.00
2022-11-08T13:07:49.092Z,6.80
2022-11-08T13:10:48.488Z,6.80
2022-11-08T13:13:38.375Z,7.75
2022-11-08T13:16:14.958Z,6.72
2022-11-08T13:31:38.460Z,7.70
2022-11-08T13:34:15.258Z,7.00
2022-11-08T13:37:04.429Z,6.82
2022-11-08T13:42:19.080Z,6.93
2022-11-08T13:44:54.664Z,7.10
2022-11-08T13:47:44.669Z,8.30
2022-11-08T13:50:29.871Z,6.80
2022-11-08T13:53:20.840Z,7.70
2022-11-08T13:55:51.664Z,7.45
2022-11-08T14:01:30.694Z,7.88
2022-11-08T14:04:00.513Z,8.55
2022-11-08T14:07:04.790Z,7.40
2022-11-08T14:09:52.465Z,6.70
2022-11-08T14:12:26.703Z,6.80
2022-11-08T14:15:07.158Z,10.98
2022-11-08T14:17:52.617Z,7.15
2022-11-08T14:20:36.075Z,9.57
2022-11-08T14:23:34.848Z,9.43
2022-11-08T14:26:06.857Z,11.35
2022-11-08T14:28:40.945Z,6.70
2022-11-08T14:31:25.503Z,7.78
2022-11-08T14:33:53.475Z,7.20
2022-11-08T14:36:21.843Z,6.40
2022-11-08T14:39:04.853Z,7.35
2022-11-08T14:41:33.627Z,6.90
2022-11-08T14:44:02.665Z,6.50
2022-11-08T14:46:35.890Z,8.13
2022-11-08T14:49:35.969Z,8.95
2022-11-08T14:52:23.642Z,8.02
2022-11-08T14:55:05.576Z,7.50
2022-11-08T14:57:58.599Z,7.18
2022-11-08T15:00:26.492Z,8.73
2022-11-08T15:03:00.809Z,8.23
2022-11-08T15:05:41.599Z,7.50
2022-11-08T15:08:23.090Z,9.73
2022-11-08T15:11:10.620Z,7.53
2022-11-08T15:13:51.073Z,7.10
2022-11-08T15:16:18.742Z,7.40
2022-11-08T15:18:45.703Z,6.50
2022-11-08T15:21:12.526Z,6.68
2022-11-08T15:23:49.300Z,7.07
2022-11-08T15:26:31.820Z,6.93
2022-11-08T15:29:13.727Z,8.00
2022-11-08T15:31:47.953Z,7.10
2022-11-08T15:34:23.990Z,6.95
2022-11-08T15:36:50.903Z,7.55
2022-11-08T15:39:24.024Z,7.33
2022-11-08T15:42:14.209Z,6.93
2022-11-08T15:44:59.540Z,7.15
2022-11-08T15:47:43.570Z,7.40
2022-11-08T15:50:32.092Z,8.18
2022-11-08T15:53:01.405Z,7.63
2022-11-08T15:55:37.298Z,8.25
2022-11-08T15:58:04.193Z,8.70
2022-11-08T16:00:34.413Z,7.88
2022-11-08T16:03:01.223Z,8.85
2022-11-08T16:05:30.312Z,8.77
2022-11-08T16:07:57.121Z,8.80
2022-11-08T16:10:39.495Z,8.00
2022-11-08T16:13:07.595Z,8.70
2022-11-08T16:15:37.915Z,8.70
2022-11-08T16:18:04.765Z,8.23
2022-11-08T16:20:36.596Z,7.88
2022-11-08T16:23:07.401Z,8.40
2022-11-08T16:25:37.322Z,8.73
2022-11-08T16:28:09.007Z,8.45
2022-11-08T16:30:37.734Z,7.60
2022-11-08T16:33:19.150Z,8.10
2022-11-08T16:35:46.118Z,7.53
2022-11-08T16:38:12.945Z,7.40
2022-11-08T16:40:39.718Z,8.20
2022-11-08T16:43:06.800Z,8.10
2022-11-08T16:46:03.239Z,8.15
2022-11-08T16:48:26.070Z,8.00
2022-11-08T16:51:08.197Z,8.60
2022-11-08T16:53:35.961Z,8.60
2022-11-08T16:56:02.676Z,8.00
2022-11-08T16:58:29.371Z,8.48
2022-11-08T17:00:56.890Z,8.65
2022-11-08T17:03:25.531Z,8.45
2022-11-08T17:05:52.931Z,8.55
2022-11-08T17:08:20.763Z,8.33
2022-11-08T17:10:47.850Z,8.40
2022-11-08T17:13:16.495Z,7.97
2022-11-08T17:15:43.754Z,8.20
2022-11-08T17:18:12.642Z,8.85
2022-11-08T17:20:39.467Z,8.77
2022-11-08T17:23:07.324Z,8.88
2022-11-08T17:25:36.771Z,8.50
2022-11-08T17:28:04.453Z,8.18
2022-11-08T17:30:31.324Z,7.82
2022-11-08T17:32:58.656Z,7.80
2022-11-08T17:35:25.499Z,8.52
2022-11-08T17:37:52.277Z,8.32
2022-11-08T17:40:19.526Z,9.13
2022-11-08T17:42:46.404Z,8.57
2022-11-08T17:45:14.306Z,8.57
2022-11-08T17:47:41.177Z,8.48
2022-11-08T17:50:08.659Z,8.63
2022-11-08T17:52:36.000Z,8.98
2022-11-08T17:55:02.976Z,8.63
2022-11-08T17:57:29.751Z,8.17
2022-11-08T17:59:56.843Z,9.00
2022-11-08T18:02:23.634Z,9.30
2022-11-08T18:04:52.957Z,8.13
2022-11-08T18:07:19.931Z,8.27
2022-11-08T18:09:51.583Z,8.10
2022-11-08T18:12:18.527Z,9.00
2022-11-08T18:14:45.337Z,8.88
2022-11-08T18:17:12.170Z,7.93
2022-11-08T18:19:39.244Z,8.52
2022-11-08T18:22:06.107Z,8.47
2022-11-08T18:24:32.913Z,8.15
2022-11-08T18:26:59.746Z,8.38
2022-11-08T18:29:29.619Z,8.77
2022-11-08T18:31:56.468Z,8.13
2022-11-08T18:34:23.194Z,8.80
2022-11-08T18:36:50.030Z,8.82
2022-11-08T18:39:19.636Z,8.82
2022-11-08T18:41:46.839Z,8.95
2022-11-08T18:44:13.662Z,8.50
2022-11-08T18:46:43.520Z,9.00
2022-11-08T18:49:11.418Z,9.02
2022-11-08T18:51:39.033Z,8.93
2022-11-08T18:54:05.886Z,9.73
2022-11-08T18:56:32.879Z,8.55
2022-11-08T18:58:59.695Z,9.07
2022-11-08T19:01:26.612Z,8.88
2022-11-08T19:03:53.463Z,9.00
2022-11-08T19:06:20.389Z,8.85
2022-11-08T19:08:47.100Z,8.70
2022-11-08T19:11:13.999Z,9.43
2022-11-08T19:13:44.240Z,9.32
2022-11-08T19:16:14.647Z,9.50
2022-11-08T19:18:42.750Z,9.40
2022-11-08T19:21:22.878Z,8.50
2022-11-08T19:23:52.534Z,8.87
2022-11-08T19:26:22.554Z,9.32
2022-11-08T19:28:53.032Z,9.10
2022-11-08T19:31:21.243Z,8.82
2022-11-08T19:33:50.673Z,8.88
2022-11-08T19:36:20.100Z,8.80
2022-11-08T19:38:47.165Z,8.23
2022-11-08T19:41:20.783Z,8.68
2022-11-08T19:43:48.267Z,8.65
2022-11-08T19:46:20.164Z,8.77
2022-11-08T19:48:48.744Z,8.57
2022-11-08T19:51:34.383Z,8.80
2022-11-08T19:54:04.123Z,8.52
2022-11-08T19:59:18.787Z,8.50
2022-11-08T20:01:45.813Z,8.17
2022-11-08T20:04:13.454Z,8.02
2022-11-08T20:06:40.903Z,8.55
2022-11-08T20:09:09.613Z,8.30
2022-11-08T20:11:40.664Z,7.80
2022-11-08T20:14:08.609Z,8.10
2022-11-08T20:16:38.680Z,8.15
2022-11-08T20:19:14.654Z,8.40
2022-11-08T20:21:41.914Z,8.25
2022-11-08T20:24:13.346Z,7.97
2022-11-08T20:26:40.834Z,7.80
2022-11-08T20:29:08.091Z,8.52
2022-11-08T20:31:35.005Z,8.05
2022-11-08T20:34:01.934Z,8.30
2022-11-08T20:36:34.560Z,8.65
2022-11-08T20:39:06.673Z,8.17
2022-11-08T20:41:34.614Z,8.45
2022-11-08T20:44:01.582Z,8.55
2022-11-08T20:46:29.568Z,8.73
2022-11-08T20:49:00.355Z,8.88
2022-11-08T20:51:28.644Z,8.07
2022-11-08T20:53:56.821Z,8.68
2022-11-08T20:56:24.468Z,8.18
2022-11-08T20:58:52.389Z,8.30
2022-11-08T21:01:25.906Z,8.23
2022-11-08T21:03:52.955Z,7.70
2022-11-08T21:06:22.671Z,9.27
2022-11-08T21:08:59.967Z,8.73
2022-11-08T21:11:29.155Z,7.68
2022-11-08T21:13:57.604Z,8.45
2022-11-08T21:16:30.603Z,7.53
2022-11-08T21:19:00.461Z,7.80
2022-11-08T21:21:27.531Z,7.50
2022-11-08T21:23:54.866Z,7.78
2022-11-08T21:26:22.801Z,7.93
2022-11-08T21:28:49.829Z,7.27
2022-11-08T21:31:17.771Z,7.45
2022-11-08T21:33:44.675Z,7.30
2022-11-08T21:36:11.631Z,7.57
2022-11-08T21:38:39.650Z,7.35
2022-11-08T21:41:08.439Z,8.10
2022-11-08T21:43:42.104Z,7.00
2022-11-08T21:46:35.336Z,7.03
2022-11-08T21:49:02.676Z,7.05
2022-11-08T21:51:30.346Z,7.30
2022-11-08T21:53:58.842Z,7.10
2022-11-08T21:56:29.177Z,6.70
2022-11-08T21:58:56.604Z,7.10
2022-11-08T22:01:28.873Z,7.13
2022-11-08T22:03:58.085Z,6.60
2022-11-08T22:06:24.912Z,6.83
2022-11-08T22:08:51.760Z,6.80
2022-11-08T22:11:18.794Z,6.47
2022-11-08T22:13:45.672Z,5.78
2022-11-08T22:16:13.676Z,6.72
2022-11-08T22:19:03.719Z,6.63
2022-11-08T22:21:27.638Z,6.30
2022-11-08T22:23:54.514Z,6.22
2022-11-08T22:26:21.493Z,6.30
2022-11-08T22:28:48.387Z,6.63
2022-11-08T22:31:15.146Z,6.20
2022-11-08T22:33:42.117Z,6.70
2022-11-08T22:36:12.373Z,6.30
2022-11-08T22:38:39.217Z,5.88
2022-11-08T22:41:06.825Z,7.40
2022-11-08T22:43:35.639Z,6.33
2022-11-08T22:46:02.889Z,6.10
2022-11-08T22:48:29.730Z,6.50
2022-11-08T22:50:58.013Z,6.78
2022-11-08T22:53:25.944Z,6.93
2022-11-08T22:55:52.818Z,7.17
2022-11-08T22:58:19.648Z,7.28
2022-11-08T23:00:46.716Z,7.28
2022-11-08T23:03:13.651Z,7.63
2022-11-08T23:05:41.013Z,6.95
2022-11-08T23:08:07.823Z,6.83
2022-11-08T23:10:34.708Z,7.22
2022-11-08T23:13:02.542Z,7.03
2022-11-08T23:15:33.019Z,8.02
2022-11-08T23:17:59.921Z,6.80
2022-11-08T23:20:28.222Z,7.13
2022-11-08T23:22:55.051Z,6.93
2022-11-08T23:25:21.891Z,6.93
2022-11-08T23:27:48.938Z,6.95
2022-11-08T23:30:18.084Z,6.53
2022-11-08T23:32:47.739Z,6.93
2022-11-08T23:35:15.706Z,6.30
2022-11-08T23:37:42.553Z,6.55
2022-11-08T23:40:11.430Z,6.03
2022-11-08T23:42:38.579Z,6.25
2022-11-08T23:45:06.274Z,6.40
2022-11-08T23:47:33.709Z,5.88
2022-11-08T23:50:00.540Z,6.43
2022-11-08T23:52:27.395Z,6.40
2022-11-08T23:54:54.647Z,6.50
2022-11-08T23:57:22.520Z,6.30
2022-11-08T23:59:49.755Z,6.30
